Time;durP1;ratioP1;P1;durP2;ratioP2;P2;SDS_P1;SDS_P2;PMS_P1;PMS_P2;Temp;Humidity;BMP_temperature;BMP_pressure;BME280_temperature;BME280_humidity;BME280_pressure;Samples;Min_cycle;Max_cycle;Signal;HPM_P1;HPM_P2
2022/05/20 00:02:19;;;;;;;1.90;1.80;;;;;;;;;;1815014;79;26806;-49
2022/05/20 00:04:46;;;;;;;1.67;1.57;;;;;;;;;;1816594;78;26316;-48
2022/05/20 00:07:13;;;;;;;4.35;1.70;;;;;;;;;;1807987;77;26361;-49
2022/05/20 00:09:41;;;;;;;1.82;1.70;;;;;;;;;;1808676;78;26396;-50
2022/05/20 00:12:09;;;;;;;1.80;1.70;;;;;;;;;;1816802;78;26330;-51
2022/05/20 00:14:36;;;;;;;1.70;1.60;;;;;;;;;;1829021;77;26349;-50
2022/05/20 00:17:05;;;;;;;4.80;1.87;;;;;;;;;;1807704;78;26284;-52
2022/05/20 00:19:33;;;;;;;1.85;1.70;;;;;;;;;;1788302;79;26274;-48
2022/05/20 00:22:01;;;;;;;2.52;1.75;;;;;;;;;;1789006;79;27012;-50
2022/05/20 00:24:29;;;;;;;2.77;1.70;;;;;;;;;;1822125;78;26314;-51
2022/05/20 00:26:56;;;;;;;2.47;1.70;;;;;;;;;;1806418;78;26762;-50
2022/05/20 00:29:24;;;;;;;1.90;1.80;;;;;;;;;;1808368;78;26407;-46
2022/05/20 00:31:51;;;;;;;1.62;1.52;;;;;;;;;;1786121;80;26800;-48
2022/05/20 00:34:18;;;;;;;1.82;1.72;;;;;;;;;;1786259;80;26286;-51
2022/05/20 00:36:45;;;;;;;1.92;1.80;;;;;;;;;;1825401;78;26361;-47
2022/05/20 00:39:13;;;;;;;1.80;1.70;;;;;;;;;;1825139;78;26354;-52
2022/05/20 00:41:40;;;;;;;2.02;1.92;;;;;;;;;;1824988;78;26287;-49
2022/05/20 00:44:07;;;;;;;1.85;1.75;;;;;;;;;;1825246;78;26372;-48
2022/05/20 00:46:34;;;;;;;2.37;2.00;;;;;;;;;;1823233;78;26344;-47
2022/05/20 00:49:03;;;;;;;2.22;2.00;;;;;;;;;;1822595;78;26314;-48
2022/05/20 00:51:33;;;;;;;3.20;2.15;;;;;;;;;;1827660;77;26321;-50
2022/05/20 00:54:01;;;;;;;2.15;1.95;;;;;;;;;;1823789;78;26349;-50
2022/05/20 00:56:30;;;;;;;1.70;1.60;;;;;;;;;;1819636;78;26326;-52
2022/05/20 00:58:58;;;;;;;1.95;1.85;;;;;;;;;;1819128;78;26354;-50
2022/05/20 01:01:28;;;;;;;3.65;2.22;;;;;;;;;;1825249;78;26313;-47
2022/05/20 01:03:56;;;;;;;2.35;2.15;;;;;;;;;;1821237;78;26274;-49
2022/05/20 01:06:24;;;;;;;3.85;2.00;;;;;;;;;;1820929;78;26805;-50
2022/05/20 01:08:51;;;;;;;4.35;2.35;;;;;;;;;;1790739;79;26298;-49
2022/05/20 01:11:18;;;;;;;2.45;2.10;;;;;;;;;;1822050;77;26384;-48
2022/05/20 01:13:49;;;;;;;2.62;1.90;;;;;;;;;;1810431;79;26369;-48
2022/05/20 01:16:16;;;;;;;2.20;2.10;;;;;;;;;;1812872;78;26384;-48
2022/05/20 01:18:45;;;;;;;2.98;2.10;;;;;;;;;;1813027;79;26283;-51
2022/05/20 01:21:14;;;;;;;2.12;1.95;;;;;;;;;;1808458;79;27622;-49
2022/05/20 01:23:41;;;;;;;2.30;2.10;;;;;;;;;;1844806;76;27260;-49
2022/05/20 01:26:09;;;;;;;2.52;1.90;;;;;;;;;;1847363;77;26340;-48
2022/05/20 01:28:36;;;;;;;3.00;2.08;;;;;;;;;;1813024;79;26286;-50
2022/05/20 01:31:05;;;;;;;3.42;2.20;;;;;;;;;;1812854;79;26370;-49
2022/05/20 01:33:34;;;;;;;2.17;2.08;;;;;;;;;;1810133;79;26818;-52
2022/05/20 01:36:02;;;;;;;2.30;2.10;;;;;;;;;;1812865;79;26945;-52
2022/05/20 01:38:30;;;;;;;2.08;1.98;;;;;;;;;;1779172;79;26416;-52
2022/05/20 01:41:08;;;;;;;2.17;2.08;;;;;;;;;;1805363;79;26321;-49
2022/05/20 01:43:43;;;;;;;3.90;2.20;;;;;;;;;;1801699;79;26409;-53
2022/05/20 01:46:12;;;;;;;2.70;2.20;;;;;;;;;;1807892;79;26367;-46
2022/05/20 01:48:40;;;;;;;2.90;2.10;;;;;;;;;;1807536;79;26303;-49
2022/05/20 01:51:09;;;;;;;2.08;1.92;;;;;;;;;;1789786;79;26357;-51
2022/05/20 01:53:41;;;;;;;2.12;2.00;;;;;;;;;;1813861;79;26338;-46
2022/05/20 01:56:19;;;;;;;2.30;2.10;;;;;;;;;;1813621;79;26356;-47
2022/05/20 01:58:53;;;;;;;2.50;2.27;;;;;;;;;;1812079;79;26350;-49
2022/05/20 02:01:22;;;;;;;2.20;2.10;;;;;;;;;;1813511;79;26292;-47
2022/05/20 02:03:54;;;;;;;4.55;2.42;;;;;;;;;;1813428;79;26357;-47
2022/05/20 02:06:25;;;;;;;3.05;2.10;;;;;;;;;;1811646;79;26330;-47
2022/05/20 02:08:54;;;;;;;2.95;2.35;;;;;;;;;;1809253;77;26230;-46
2022/05/20 02:11:24;;;;;;;2.55;2.30;;;;;;;;;;1814056;78;26274;-48
2022/05/20 02:13:53;;;;;;;2.47;2.20;;;;;;;;;;1813309;78;26666;-46
2022/05/20 02:16:22;;;;;;;2.00;1.90;;;;;;;;;;1845100;76;26280;-47
2022/05/20 02:18:51;;;;;;;2.65;1.98;;;;;;;;;;1846457;77;26344;-52
2022/05/20 02:21:19;;;;;;;2.35;2.25;;;;;;;;;;1803695;79;26302;-49
2022/05/20 02:23:48;;;;;;;2.50;2.30;;;;;;;;;;1844548;77;26405;-49
2022/05/20 02:26:17;;;;;;;2.22;2.10;;;;;;;;;;1813886;79;26330;-53
2022/05/20 02:28:46;;;;;;;2.37;2.17;;;;;;;;;;1813832;79;26307;-53
2022/05/20 02:31:18;;;;;;;3.90;2.08;;;;;;;;;;1808032;79;26295;-50
2022/05/20 02:33:45;;;;;;;1.98;1.87;;;;;;;;;;1813547;79;26893;-46
2022/05/20 02:36:20;;;;;;;2.12;2.02;;;;;;;;;;1843930;77;26265;-47
2022/05/20 02:38:47;;;;;;;2.02;1.92;;;;;;;;;;1813469;79;26646;-48
2022/05/20 02:41:16;;;;;;;3.60;2.00;;;;;;;;;;1813863;78;26379;-48
2022/05/20 02:43:44;;;;;;;2.30;2.10;;;;;;;;;;1813957;79;26309;-48
2022/05/20 02:46:12;;;;;;;2.35;2.20;;;;;;;;;;1813898;79;26364;-46
2022/05/20 02:48:39;;;;;;;2.25;2.05;;;;;;;;;;1813908;78;26913;-51
2022/05/20 02:51:07;;;;;;;2.60;2.40;;;;;;;;;;1841069;77;26728;-49
2022/05/20 02:53:35;;;;;;;2.27;2.08;;;;;;;;;;1846066;77;26275;-46
2022/05/20 02:56:03;;;;;;;2.55;2.20;;;;;;;;;;1845812;77;26300;-48
2022/05/20 03:04:11;;;;;;;2.50;2.30;;;;;;;;;;1771636;79;26788;-49
2022/05/20 03:06:42;;;;;;;2.10;1.90;;;;;;;;;;1760770;79;26331;-50
2022/05/20 03:09:10;;;;;;;2.30;2.00;;;;;;;;;;1779088;79;26751;-51
2022/05/20 03:11:42;;;;;;;2.70;2.45;;;;;;;;;;1817054;79;26299;-50
2022/05/20 03:14:08;;;;;;;2.10;1.90;;;;;;;;;;1829561;77;26395;-50
2022/05/20 03:16:37;;;;;;;2.60;2.40;;;;;;;;;;1826755;77;26698;-52
2022/05/20 03:19:05;;;;;;;2.75;1.92;;;;;;;;;;1822677;78;26280;-49
2022/05/20 03:21:33;;;;;;;2.87;2.10;;;;;;;;;;1822689;78;26286;-48
2022/05/20 03:24:01;;;;;;;2.33;2.15;;;;;;;;;;1822322;78;26309;-49
2022/05/20 03:26:29;;;;;;;2.10;1.98;;;;;;;;;;1822678;78;26295;-48
2022/05/20 03:29:02;;;;;;;2.45;2.25;;;;;;;;;;1822568;78;26303;-49
2022/05/20 03:31:29;;;;;;;2.22;1.98;;;;;;;;;;1821417;78;26682;-47
2022/05/20 03:33:57;;;;;;;2.15;2.00;;;;;;;;;;1791675;79;26274;-49
2022/05/20 03:36:25;;;;;;;2.20;2.08;;;;;;;;;;1822939;78;26928;-49
2022/05/20 03:38:52;;;;;;;2.00;1.90;;;;;;;;;;1811960;78;26754;-51
2022/05/20 03:41:20;;;;;;;2.12;1.87;;;;;;;;;;1789431;80;26326;-48
2022/05/20 03:43:48;;;;;;;2.00;1.90;;;;;;;;;;1808446;79;26322;-47
2022/05/20 03:46:15;;;;;;;2.00;1.90;;;;;;;;;;1786171;79;26293;-50
2022/05/20 03:48:42;;;;;;;2.87;2.00;;;;;;;;;;1816195;78;26298;-46
2022/05/20 03:51:10;;;;;;;3.52;1.87;;;;;;;;;;1790434;80;26301;-46
2022/05/20 03:53:38;;;;;;;2.40;1.80;;;;;;;;;;1822745;78;26294;-50
2022/05/20 03:56:06;;;;;;;2.92;1.98;;;;;;;;;;1822099;78;26322;-51
2022/05/20 03:58:33;;;;;;;1.85;1.75;;;;;;;;;;1818977;78;26294;-51
2022/05/20 04:03:47;;;;;;;2.10;1.80;;;;;;;;;;1822888;78;26384;-48
2022/05/20 04:06:15;;;;;;;1.67;1.57;;;;;;;;;;1814458;78;26925;-48
2022/05/20 04:08:42;;;;;;;1.60;1.50;;;;;;;;;;1822568;78;26777;-52
2022/05/20 04:11:12;;;;;;;1.87;1.70;;;;;;;;;;1794684;79;26415;-46
2022/05/20 04:13:41;;;;;;;1.67;1.57;;;;;;;;;;1822649;78;26624;-48
2022/05/20 04:16:09;;;;;;;1.47;1.37;;;;;;;;;;1823927;78;26298;-47
2022/05/20 04:18:38;;;;;;;1.75;1.60;;;;;;;;;;1801719;78;26274;-46
2022/05/20 04:21:06;;;;;;;1.50;1.50;;;;;;;;;;1825048;78;26811;-48
2022/05/20 04:23:33;;;;;;;1.67;1.57;;;;;;;;;;1824175;78;26337;-46
2022/05/20 04:26:01;;;;;;;1.62;1.52;;;;;;;;;;1822735;78;26934;-49
2022/05/20 04:28:28;;;;;;;1.32;1.32;;;;;;;;;;1822632;78;26318;-53
2022/05/20 04:30:57;;;;;;;1.37;1.30;;;;;;;;;;1822485;78;26303;-53
2022/05/20 04:33:25;;;;;;;1.37;1.27;;;;;;;;;;1823074;78;26258;-48
2022/05/20 04:35:52;;;;;;;1.17;1.17;;;;;;;;;;1822596;78;26275;-49
2022/05/20 04:38:21;;;;;;;1.30;1.30;;;;;;;;;;1823013;77;26290;-54
2022/05/20 04:48:47;;;;;;;6.28;1.60;;;;;;;;;;1786915;79;26368;-50
2022/05/20 04:51:15;;;;;;;3.10;1.60;;;;;;;;;;1772503;80;26298;-51
2022/05/20 04:56:28;;;;;;;2.45;1.60;;;;;;;;;;1803359;78;26416;-50
2022/05/20 04:58:55;;;;;;;1.95;1.57;;;;;;;;;;1787427;79;26340;-48
2022/05/20 05:01:23;;;;;;;6.00;1.90;;;;;;;;;;1821969;78;26314;-50
2022/05/20 05:03:50;;;;;;;3.92;1.90;;;;;;;;;;1808010;79;26783;-52
2022/05/20 05:06:17;;;;;;;2.60;1.85;;;;;;;;;;1785564;79;26938;-50
2022/05/20 05:08:44;;;;;;;2.98;1.80;;;;;;;;;;1820651;77;26353;-49
2022/05/20 05:11:12;;;;;;;1.90;1.70;;;;;;;;;;1821146;77;26417;-47
2022/05/20 05:13:39;;;;;;;3.42;1.50;;;;;;;;;;1821802;78;26326;-50
2022/05/20 05:16:07;;;;;;;2.58;1.52;;;;;;;;;;1822102;78;27531;-52
2022/05/20 05:18:37;;;;;;;3.85;1.80;;;;;;;;;;1821710;78;26704;-51
2022/05/20 05:21:03;;;;;;;1.55;1.45;;;;;;;;;;1815719;78;26754;-51
2022/05/20 05:23:31;;;;;;;1.50;1.40;;;;;;;;;;1820523;78;26318;-50
2022/05/20 05:25:58;;;;;;;2.27;1.60;;;;;;;;;;1822935;77;26541;-47
2022/05/20 05:28:26;;;;;;;3.35;1.70;;;;;;;;;;1820625;77;26267;-48
2022/05/20 05:30:53;;;;;;;1.98;1.80;;;;;;;;;;1822258;78;26314;-48
2022/05/20 05:33:22;;;;;;;1.77;1.50;;;;;;;;;;1821184;78;26275;-49
2022/05/20 05:35:49;;;;;;;2.92;1.60;;;;;;;;;;1814048;78;26787;-49
2022/05/20 05:38:16;;;;;;;2.05;1.62;;;;;;;;;;1819509;77;26715;-48
2022/05/20 05:40:44;;;;;;;1.95;1.60;;;;;;;;;;1820418;78;26430;-47
2022/05/20 05:43:11;;;;;;;2.08;1.80;;;;;;;;;;1801615;78;26393;-52
2022/05/20 05:45:39;;;;;;;1.60;1.50;;;;;;;;;;1779031;79;26404;-48
2022/05/20 05:48:08;;;;;;;3.00;1.75;;;;;;;;;;1817128;77;26327;-52
2022/05/20 05:50:37;;;;;;;3.15;1.50;;;;;;;;;;1783246;78;26333;-52
2022/05/20 05:53:09;;;;;;;2.95;1.42;;;;;;;;;;1803647;78;27298;-52
2022/05/20 05:55:36;;;;;;;2.15;1.67;;;;;;;;;;1792745;79;26377;-52
2022/05/20 05:58:03;;;;;;;4.75;1.55;;;;;;;;;;1794165;79;27658;-53
2022/05/20 06:00:31;;;;;;;2.27;1.55;;;;;;;;;;1792721;79;26842;-54
2022/05/20 06:02:58;;;;;;;1.60;1.50;;;;;;;;;;1795171;79;26302;-52
2022/05/20 06:05:25;;;;;;;2.12;1.50;;;;;;;;;;1795425;78;26293;-53
2022/05/20 06:07:52;;;;;;;2.67;1.60;;;;;;;;;;1793650;79;26344;-55
2022/05/20 06:10:20;;;;;;;1.50;1.37;;;;;;;;;;1795962;77;26388;-51
2022/05/20 06:12:48;;;;;;;3.58;1.50;;;;;;;;;;1805188;78;26303;-53
2022/05/20 06:15:22;;;;;;;1.40;1.22;;;;;;;;;;1817157;77;26341;-52
2022/05/20 06:17:49;;;;;;;3.10;1.50;;;;;;;;;;1809166;78;26430;-50
2022/05/20 06:20:17;;;;;;;3.85;1.30;;;;;;;;;;1808943;78;27249;-52
2022/05/20 06:22:44;;;;;;;1.00;1.00;;;;;;;;;;1808761;78;26377;-50
2022/05/20 06:25:12;;;;;;;1.60;1.45;;;;;;;;;;1808527;78;26859;-50
2022/05/20 06:27:39;;;;;;;1.27;1.17;;;;;;;;;;1782712;79;26271;-55
2022/05/20 06:30:08;;;;;;;4.72;1.30;;;;;;;;;;1809057;78;26402;-55
2022/05/20 06:32:36;;;;;;;1.45;1.20;;;;;;;;;;1809114;78;26347;-53
2022/05/20 06:40:40;;;;;;;1.50;1.40;;;;;;;;;;1809662;78;26334;-55
2022/05/20 06:43:07;;;;;;;2.67;1.25;;;;;;;;;;1805387;78;26363;-55
2022/05/20 06:45:35;;;;;;;4.50;1.20;;;;;;;;;;1808332;78;26338;-52
2022/05/20 06:48:02;;;;;;;1.30;1.00;;;;;;;;;;1803520;78;26283;-48
2022/05/20 06:50:29;;;;;;;3.02;1.40;;;;;;;;;;1805720;78;26600;-53
2022/05/20 06:52:57;;;;;;;2.42;1.20;;;;;;;;;;1797344;78;26356;-50
2022/05/20 06:55:24;;;;;;;1.32;1.20;;;;;;;;;;1772643;79;26279;-50
2022/05/20 06:57:51;;;;;;;1.40;1.00;;;;;;;;;;1772198;79;26345;-52
2022/05/20 07:00:19;;;;;;;3.55;1.20;;;;;;;;;;1845839;76;26406;-54
2022/05/20 07:02:46;;;;;;;1.15;1.00;;;;;;;;;;1846413;76;27364;-51
2022/05/20 07:05:13;;;;;;;3.45;1.20;;;;;;;;;;1805429;77;26302;-53
2022/05/20 07:07:41;;;;;;;3.00;1.00;;;;;;;;;;1848132;76;26370;-49
2022/05/20 07:10:10;;;;;;;1.75;0.82;;;;;;;;;;1846600;75;26391;-49
2022/05/20 07:12:37;;;;;;;0.90;0.90;;;;;;;;;;1809696;78;26948;-49
2022/05/20 07:15:06;;;;;;;1.00;1.00;;;;;;;;;;1848754;76;27245;-61
2022/05/20 07:17:33;;;;;;;0.90;0.90;;;;;;;;;;1846157;76;27016;-58
2022/05/20 07:20:00;;;;;;;1.20;1.10;;;;;;;;;;1855567;76;26308;-60
2022/05/20 07:22:28;;;;;;;1.52;0.90;;;;;;;;;;1851735;76;26372;-48
2022/05/20 07:24:55;;;;;;;1.22;0.95;;;;;;;;;;1849225;76;26297;-52
2022/05/20 07:27:22;;;;;;;1.00;1.00;;;;;;;;;;1853008;76;26267;-51
2022/05/20 07:29:50;;;;;;;0.98;0.90;;;;;;;;;;1850863;76;26845;-52
2022/05/20 07:32:17;;;;;;;0.80;0.80;;;;;;;;;;1849333;76;26315;-57
2022/05/20 07:34:44;;;;;;;0.80;0.80;;;;;;;;;;1848705;76;26350;-52
2022/05/20 07:37:12;;;;;;;0.98;0.98;;;;;;;;;;1849336;76;26266;-53
2022/05/20 07:39:39;;;;;;;0.90;0.80;;;;;;;;;;1848950;76;26288;-51
2022/05/20 07:42:07;;;;;;;0.90;0.90;;;;;;;;;;1855674;76;26300;-51
2022/05/20 07:44:36;;;;;;;0.90;0.90;;;;;;;;;;1849172;76;26837;-49
2022/05/20 07:47:04;;;;;;;2.02;1.00;;;;;;;;;;1856185;76;26381;-54
2022/05/20 07:49:31;;;;;;;0.70;0.70;;;;;;;;;;1855439;76;26300;-54
2022/05/20 07:52:02;;;;;;;1.10;1.00;;;;;;;;;;1851974;76;26308;-49
2022/05/20 07:54:29;;;;;;;0.85;0.85;;;;;;;;;;1853013;76;26312;-53
2022/05/20 07:56:59;;;;;;;0.82;0.82;;;;;;;;;;1851934;76;26284;-55
2022/05/20 07:59:31;;;;;;;0.90;0.90;;;;;;;;;;1851892;76;27374;-53
2022/05/20 08:02:00;;;;;;;0.80;0.80;;;;;;;;;;1851513;76;26313;-55
2022/05/20 08:07:14;;;;;;;1.65;1.17;;;;;;;;;;1853061;76;26745;-50
2022/05/20 08:09:42;;;;;;;0.80;0.80;;;;;;;;;;1854816;76;26386;-55
2022/05/20 08:12:09;;;;;;;1.00;1.00;;;;;;;;;;1851352;76;27696;-52
2022/05/20 08:14:37;;;;;;;0.88;0.88;;;;;;;;;;1854613;76;26263;-54
2022/05/20 08:17:06;;;;;;;1.45;0.90;;;;;;;;;;1844631;76;26324;-51
2022/05/20 08:19:33;;;;;;;0.80;0.80;;;;;;;;;;1807637;78;26735;-50
2022/05/20 08:22:01;;;;;;;0.90;0.90;;;;;;;;;;1809778;78;26285;-54
2022/05/20 08:24:30;;;;;;;0.90;0.90;;;;;;;;;;1805010;78;26319;-46
2022/05/20 08:26:58;;;;;;;0.90;0.90;;;;;;;;;;1802466;78;26382;-49
2022/05/20 08:29:25;;;;;;;0.60;0.60;;;;;;;;;;1800341;78;26283;-57
2022/05/20 08:31:52;;;;;;;1.05;0.90;;;;;;;;;;1763900;80;26923;-54
2022/05/20 08:34:20;;;;;;;0.80;0.80;;;;;;;;;;1850007;76;27830;-48
2022/05/20 08:36:47;;;;;;;0.75;0.75;;;;;;;;;;1811514;78;26394;-47
2022/05/20 08:39:14;;;;;;;0.80;0.80;;;;;;;;;;1806706;78;26311;-49
2022/05/20 08:41:43;;;;;;;2.20;0.90;;;;;;;;;;1844759;76;26949;-53
2022/05/20 08:44:12;;;;;;;0.80;0.80;;;;;;;;;;1841893;76;26772;-56
2022/05/20 08:46:41;;;;;;;0.70;0.70;;;;;;;;;;1806612;78;26373;-49
2022/05/20 08:49:10;;;;;;;0.75;0.75;;;;;;;;;;1808488;78;26308;-52
2022/05/20 08:51:39;;;;;;;0.70;0.70;;;;;;;;;;1807750;78;26973;-48
2022/05/20 08:54:07;;;;;;;1.00;1.00;;;;;;;;;;1846808;76;27289;-47
2022/05/20 08:56:36;;;;;;;0.70;0.70;;;;;;;;;;1840221;76;26349;-50
2022/05/20 08:59:05;;;;;;;0.90;0.90;;;;;;;;;;1843821;76;26268;-52
2022/05/20 09:01:34;;;;;;;0.80;0.80;;;;;;;;;;1837305;76;26297;-63
2022/05/20 09:04:02;;;;;;;1.12;0.88;;;;;;;;;;1847065;76;26316;-64
2022/05/20 09:06:29;;;;;;;0.72;0.70;;;;;;;;;;1841877;76;26772;-54
2022/05/20 09:09:04;;;;;;;0.72;0.72;;;;;;;;;;1845111;76;26275;-58
2022/05/20 09:11:32;;;;;;;0.70;0.70;;;;;;;;;;1844215;76;27552;-64
2022/05/20 09:16:47;;;;;;;0.88;0.88;;;;;;;;;;1849597;76;26770;-57
2022/05/20 09:19:16;;;;;;;0.80;0.80;;;;;;;;;;1849156;76;26824;-64
2022/05/20 09:21:44;;;;;;;0.80;0.80;;;;;;;;;;1851366;76;26643;-61
2022/05/20 09:24:18;;;;;;;0.98;0.98;;;;;;;;;;1853658;76;27321;-60
2022/05/20 09:26:47;;;;;;;1.00;1.00;;;;;;;;;;1819367;77;26728;-59
2022/05/20 09:29:22;;;;;;;0.80;0.80;;;;;;;;;;1815839;77;26386;-55
2022/05/20 09:31:52;;;;;;;0.80;0.80;;;;;;;;;;1819570;77;26320;-56
2022/05/20 09:34:21;;;;;;;0.70;0.70;;;;;;;;;;1790906;78;26863;-55
2022/05/20 09:36:51;;;;;;;0.80;0.80;;;;;;;;;;1820990;77;26224;-56
2022/05/20 09:39:20;;;;;;;0.90;0.90;;;;;;;;;;1783383;78;26695;-55
2022/05/20 09:41:49;;;;;;;0.95;0.95;;;;;;;;;;1788409;79;26793;-51
2022/05/20 09:44:19;;;;;;;0.88;0.88;;;;;;;;;;1820619;77;26771;-55
2022/05/20 09:46:51;;;;;;;0.90;0.90;;;;;;;;;;1819664;77;26320;-52
2022/05/20 09:49:18;;;;;;;0.78;0.78;;;;;;;;;;1789216;78;26309;-56
2022/05/20 09:51:50;;;;;;;0.90;0.90;;;;;;;;;;1783485;79;26359;-62
2022/05/20 09:54:26;;;;;;;0.80;0.80;;;;;;;;;;1792068;78;26266;-63
2022/05/20 09:57:01;;;;;;;0.90;0.90;;;;;;;;;;1802899;78;26323;-65
2022/05/20 09:59:48;;;;;;;0.90;0.90;;;;;;;;;;1822314;77;26311;-64
2022/05/20 10:02:32;;;;;;;0.90;0.90;;;;;;;;;;1806645;78;26303;-50
2022/05/20 10:05:00;;;;;;;0.90;0.90;;;;;;;;;;1812074;78;26283;-59
2022/05/20 10:07:32;;;;;;;0.90;0.90;;;;;;;;;;1790585;79;26008;-41
2022/05/20 10:10:01;;;;;;;0.90;0.90;;;;;;;;;;1788911;79;26760;-52
2022/05/20 10:12:30;;;;;;;1.00;1.00;;;;;;;;;;1784398;79;26286;-51
2022/05/20 10:14:59;;;;;;;0.80;0.80;;;;;;;;;;1821356;78;26287;-55
2022/05/20 10:17:30;;;;;;;1.30;0.90;;;;;;;;;;1818829;78;26335;-51
2022/05/20 10:20:16;;;;;;;1.17;0.90;;;;;;;;;;1809138;79;26275;-52
2022/05/20 10:22:48;;;;;;;3.15;1.10;;;;;;;;;;1782539;79;26321;-46
2022/05/20 10:25:17;;;;;;;0.82;0.82;;;;;;;;;;1804602;78;26644;-49
2022/05/20 10:27:52;;;;;;;2.62;0.95;;;;;;;;;;1783590;79;26294;-46
2022/05/20 10:33:08;;;;;;;0.90;0.90;;;;;;;;;;1806099;79;26717;-49
2022/05/20 10:35:37;;;;;;;2.00;1.00;;;;;;;;;;1778074;79;38874;-58
2022/05/20 10:38:11;;;;;;;0.72;0.72;;;;;;;;;;1794098;78;26291;-54
2022/05/20 10:40:46;;;;;;;1.57;0.80;;;;;;;;;;1789619;80;26277;-46
2022/05/20 10:43:15;;;;;;;0.88;0.85;;;;;;;;;;1800782;79;26300;-53
2022/05/20 10:48:52;;;;;;;2.37;1.00;;;;;;;;;;1775503;80;26380;-49
2022/05/20 10:51:37;;;;;;;2.83;0.80;;;;;;;;;;1788441;79;26367;-47
2022/05/20 10:54:22;;;;;;;2.00;0.80;;;;;;;;;;1819602;78;26369;-50
2022/05/20 10:57:06;;;;;;;1.55;0.90;;;;;;;;;;1794334;79;26788;-50
2022/05/20 10:59:42;;;;;;;2.02;0.85;;;;;;;;;;1819755;78;26303;-46
2022/05/20 11:02:28;;;;;;;2.77;1.15;;;;;;;;;;1822319;78;26302;-50
2022/05/20 11:05:06;;;;;;;4.37;1.00;;;;;;;;;;1809950;78;26322;-55
2022/05/20 11:07:41;;;;;;;1.07;0.98;;;;;;;;;;1795549;78;26269;-55
2022/05/20 11:10:15;;;;;;;3.40;1.05;;;;;;;;;;1784700;79;26804;-53
2022/05/20 11:12:51;;;;;;;3.37;1.20;;;;;;;;;;1814634;78;26287;-50
2022/05/20 11:15:23;;;;;;;2.27;1.00;;;;;;;;;;1786360;79;27305;-49
2022/05/20 11:18:01;;;;;;;1.12;1.00;;;;;;;;;;1820852;77;26324;-48
2022/05/20 11:20:39;;;;;;;2.47;1.22;;;;;;;;;;1789700;79;26294;-49
2022/05/20 11:23:11;;;;;;;1.77;1.10;;;;;;;;;;1824971;78;26305;-48
2022/05/20 11:25:46;;;;;;;5.42;2.15;;;;;;;;;;1788919;78;26378;-51
2022/05/20 11:28:15;;;;;;;1.25;1.10;;;;;;;;;;1826683;78;26360;-51
2022/05/20 11:30:59;;;;;;;2.95;1.00;;;;;;;;;;1820496;78;26267;-50
2022/05/20 11:33:46;;;;;;;2.27;1.10;;;;;;;;;;1827875;78;26887;-48
2022/05/20 11:36:18;;;;;;;2.55;1.10;;;;;;;;;;1817553;77;27282;-53
2022/05/20 11:38:49;;;;;;;1.20;1.10;;;;;;;;;;1820349;78;26374;-52
2022/05/20 11:41:22;;;;;;;3.10;1.10;;;;;;;;;;1827272;78;26297;-51
2022/05/20 11:43:55;;;;;;;1.25;0.95;;;;;;;;;;1830649;77;26322;-51
2022/05/20 11:46:26;;;;;;;2.95;1.17;;;;;;;;;;1823179;77;26345;-50
2022/05/20 11:48:58;;;;;;;1.72;1.10;;;;;;;;;;1820899;77;26936;-54
2022/05/20 11:51:32;;;;;;;1.17;1.17;;;;;;;;;;1823127;78;26648;-48
2022/05/20 11:54:01;;;;;;;1.10;1.00;;;;;;;;;;1827752;78;26352;-49
2022/05/20 11:56:33;;;;;;;3.22;1.10;;;;;;;;;;1825279;78;26392;-51
2022/05/20 11:59:06;;;;;;;1.40;1.30;;;;;;;;;;1827968;78;26293;-53
2022/05/20 12:01:35;;;;;;;1.37;1.27;;;;;;;;;;1821106;77;26311;-53
2022/05/20 12:04:07;;;;;;;0.90;0.90;;;;;;;;;;1827183;77;26298;-50
2022/05/20 12:06:54;;;;;;;1.92;1.00;;;;;;;;;;1826012;77;26737;-49
2022/05/20 12:09:39;;;;;;;1.00;1.00;;;;;;;;;;1825994;77;26462;-51
2022/05/20 12:12:08;;;;;;;4.50;1.10;;;;;;;;;;1823747;77;26299;-45
2022/05/20 12:14:54;;;;;;;1.65;1.05;;;;;;;;;;1826151;78;26380;-54
2022/05/20 12:17:38;;;;;;;2.05;1.20;;;;;;;;;;1817392;77;26763;-50
2022/05/20 12:26:01;;;;;;;1.00;1.00;;;;;;;;;;1768010;80;26404;-49
2022/05/20 12:28:30;;;;;;;1.75;1.00;;;;;;;;;;1764533;79;25885;-55
2022/05/20 12:31:08;;;;;;;1.95;1.20;;;;;;;;;;1765400;79;26293;-50
2022/05/20 12:33:52;;;;;;;1.40;1.17;;;;;;;;;;1763290;79;26286;-51
2022/05/20 12:36:21;;;;;;;2.52;1.10;;;;;;;;;;1761585;80;26340;-52
2022/05/20 12:38:49;;;;;;;1.32;1.07;;;;;;;;;;1761879;79;26320;-48
2022/05/20 12:41:18;;;;;;;1.85;0.95;;;;;;;;;;1763543;79;26320;-52
2022/05/20 12:43:46;;;;;;;1.10;1.00;;;;;;;;;;1768681;79;26296;-51
2022/05/20 12:46:15;;;;;;;0.90;0.90;;;;;;;;;;1765223;79;26325;-53
2022/05/20 12:48:42;;;;;;;1.15;1.07;;;;;;;;;;1779134;79;26360;-49
2022/05/20 12:51:10;;;;;;;1.30;1.20;;;;;;;;;;1760041;79;26736;-51
2022/05/20 12:53:38;;;;;;;1.00;1.00;;;;;;;;;;1760362;79;26304;-49
2022/05/20 12:56:06;;;;;;;0.98;0.98;;;;;;;;;;1767788;79;26698;-49
2022/05/20 12:58:35;;;;;;;0.90;0.90;;;;;;;;;;1739494;81;26386;-54
2022/05/20 13:01:04;;;;;;;2.58;1.20;;;;;;;;;;1767931;79;27415;-45
2022/05/20 13:03:36;;;;;;;1.25;1.15;;;;;;;;;;1767582;79;26787;-51
2022/05/20 13:06:05;;;;;;;1.00;1.00;;;;;;;;;;1771180;79;26343;-54
2022/05/20 13:08:49;;;;;;;1.37;0.95;;;;;;;;;;1769562;79;26304;-51
2022/05/20 13:11:18;;;;;;;8.58;1.30;;;;;;;;;;1770526;79;26309;-49
2022/05/20 13:13:46;;;;;;;6.62;1.25;;;;;;;;;;1771405;79;26366;-54
2022/05/20 13:16:14;;;;;;;3.70;1.12;;;;;;;;;;1760238;79;26308;-46
2022/05/20 13:18:43;;;;;;;2.27;1.00;;;;;;;;;;1801939;78;26350;-51
2022/05/20 13:21:18;;;;;;;1.92;1.00;;;;;;;;;;1816925;77;26790;-50
2022/05/20 13:23:47;;;;;;;1.42;1.32;;;;;;;;;;1809732;78;26334;-47
2022/05/20 13:26:23;;;;;;;2.15;1.05;;;;;;;;;;1813310;78;26785;-44
2022/05/20 13:28:51;;;;;;;1.25;1.15;;;;;;;;;;1818990;78;26601;-48
2022/05/20 13:31:22;;;;;;;2.05;1.00;;;;;;;;;;1826922;77;26233;-49
2022/05/20 13:33:50;;;;;;;3.33;1.10;;;;;;;;;;1815335;78;26388;-49
2022/05/20 13:36:21;;;;;;;2.35;1.15;;;;;;;;;;1809447;77;26366;-51
2022/05/20 13:38:58;;;;;;;3.90;1.47;;;;;;;;;;1810504;78;26802;-52
2022/05/20 13:41:27;;;;;;;2.60;1.10;;;;;;;;;;1783026;78;26697;-52
2022/05/20 13:43:55;;;;;;;3.35;1.00;;;;;;;;;;1815410;78;26778;-49
2022/05/20 13:49:18;;;;;;;4.15;0.98;;;;;;;;;;1814694;78;26288;-49
2022/05/20 13:51:47;;;;;;;3.12;1.00;;;;;;;;;;1812950;78;26314;-52
2022/05/20 13:54:16;;;;;;;1.07;1.00;;;;;;;;;;1783114;79;26324;-52
2022/05/20 13:56:45;;;;;;;2.00;1.00;;;;;;;;;;1814274;77;26334;-52
2022/05/20 13:59:26;;;;;;;1.72;1.00;;;;;;;;;;1815443;77;26294;-50
2022/05/20 14:01:55;;;;;;;2.33;1.00;;;;;;;;;;1818126;78;26357;-46
2022/05/20 14:04:32;;;;;;;1.55;0.93;;;;;;;;;;1779705;78;26327;-46
2022/05/20 14:07:01;;;;;;;3.02;1.10;;;;;;;;;;1814797;77;27836;-48
2022/05/20 14:09:28;;;;;;;1.05;1.00;;;;;;;;;;1811889;78;26310;-50
2022/05/20 14:11:56;;;;;;;1.25;0.90;;;;;;;;;;1812520;78;26473;-52
2022/05/20 14:14:25;;;;;;;2.17;0.93;;;;;;;;;;1802687;78;26399;-49
2022/05/20 14:16:52;;;;;;;1.57;0.90;;;;;;;;;;1800300;78;26338;-52
2022/05/20 14:19:21;;;;;;;2.42;1.00;;;;;;;;;;1774432;79;27471;-49
2022/05/20 14:21:50;;;;;;;2.08;1.00;;;;;;;;;;1844600;77;26208;-50
2022/05/20 14:24:21;;;;;;;1.12;1.02;;;;;;;;;;1802908;77;25907;-50
2022/05/20 14:26:50;;;;;;;0.90;0.90;;;;;;;;;;1835304;77;26657;-48
2022/05/20 14:29:18;;;;;;;0.80;0.80;;;;;;;;;;1844906;77;26208;-50
2022/05/20 14:31:53;;;;;;;1.35;0.90;;;;;;;;;;1841059;77;26677;-52
2022/05/20 14:34:31;;;;;;;1.10;0.85;;;;;;;;;;1801710;78;26257;-53
2022/05/20 14:37:13;;;;;;;1.37;0.80;;;;;;;;;;1807924;77;26349;-52
2022/05/20 14:39:47;;;;;;;0.90;0.90;;;;;;;;;;1770505;77;27218;-49
2022/05/20 14:42:31;;;;;;;2.25;0.85;;;;;;;;;;1836350;77;26267;-49
2022/05/20 14:45:00;;;;;;;0.80;0.80;;;;;;;;;;1840491;77;27317;-49
2022/05/20 14:47:28;;;;;;;0.78;0.78;;;;;;;;;;1805795;77;26373;-53
2022/05/20 14:49:57;;;;;;;1.30;0.85;;;;;;;;;;1805725;79;26307;-49
2022/05/20 14:52:26;;;;;;;0.93;0.93;;;;;;;;;;1839941;77;26287;-50
2022/05/20 14:54:54;;;;;;;1.65;0.90;;;;;;;;;;1836253;77;26775;-52
2022/05/20 14:57:23;;;;;;;1.60;1.00;;;;;;;;;;1802552;78;26264;-52
2022/05/20 15:00:08;;;;;;;5.87;1.00;;;;;;;;;;1805632;79;26302;-55
2022/05/20 15:02:36;;;;;;;3.12;0.75;;;;;;;;;;1809033;78;26309;-51
2022/05/20 15:05:04;;;;;;;5.50;0.80;;;;;;;;;;1806032;77;26812;-50
2022/05/20 15:07:32;;;;;;;1.02;0.90;;;;;;;;;;1810488;77;26668;-53
2022/05/20 15:09:59;;;;;;;0.82;0.82;;;;;;;;;;1803274;77;26352;-55
2022/05/20 15:12:27;;;;;;;1.37;0.90;;;;;;;;;;1803722;77;26390;-51
2022/05/20 15:14:54;;;;;;;2.08;0.80;;;;;;;;;;1778268;79;26348;-49
2022/05/20 15:17:21;;;;;;;2.20;0.70;;;;;;;;;;1773009;79;26394;-50
2022/05/20 15:19:49;;;;;;;3.30;0.90;;;;;;;;;;1780557;80;26356;-52
2022/05/20 15:22:17;;;;;;;3.27;0.80;;;;;;;;;;1816369;78;26259;-51
2022/05/20 15:24:47;;;;;;;2.62;0.70;;;;;;;;;;1786437;79;26338;-50
2022/05/20 15:27:25;;;;;;;2.30;0.80;;;;;;;;;;1781898;80;26388;-50
2022/05/20 15:29:52;;;;;;;0.95;0.70;;;;;;;;;;1819348;77;26323;-50
2022/05/20 15:35:06;;;;;;;2.08;0.70;;;;;;;;;;1789046;79;26400;-50
2022/05/20 15:37:36;;;;;;;0.70;0.70;;;;;;;;;;1814486;78;26659;-53
2022/05/20 15:40:11;;;;;;;1.60;0.70;;;;;;;;;;1815929;77;26827;-51
2022/05/20 15:42:39;;;;;;;0.70;0.70;;;;;;;;;;1815300;78;26263;-49
2022/05/20 15:45:07;;;;;;;4.53;1.05;;;;;;;;;;1808754;78;26736;-48
2022/05/20 15:47:34;;;;;;;0.68;0.68;;;;;;;;;;1814235;77;26328;-48